createdAt,value
2019-03-03T00:00:11.563Z,85.60
2019-03-03T00:00:56.029Z,84.95
2019-03-03T00:01:57.035Z,85.80
2019-03-03T00:02:56.003Z,86.01
2019-03-03T00:03:56.024Z,86.01
2019-03-03T00:04:55.997Z,84.99
2019-03-03T00:05:56.038Z,85.30
2019-03-03T00:06:55.961Z,84.99
2019-03-03T00:07:56.052Z,85.50
2019-03-03T00:08:55.939Z,84.99
2019-03-03T00:09:55.995Z,85.30
2019-03-03T00:10:55.919Z,85.80
2019-03-03T00:11:55.978Z,84.68
2019-03-03T00:12:55.896Z,84.78
2019-03-03T00:13:55.991Z,85.80
2019-03-03T00:14:55.889Z,85.30
2019-03-03T00:15:55.910Z,84.68
2019-03-03T00:16:55.854Z,85.39
2019-03-03T00:17:55.919Z,84.58
2019-03-03T00:18:55.833Z,83.65
2019-03-03T00:19:55.857Z,83.86
2019-03-03T00:20:55.811Z,83.86
2019-03-03T00:21:55.841Z,83.20
2019-03-03T00:22:55.792Z,83.14
2019-03-03T00:23:55.854Z,83.34
2019-03-03T00:24:55.783Z,82.73
2019-03-03T00:25:55.868Z,83.04
2019-03-03T00:26:55.748Z,82.49
2019-03-03T00:27:55.786Z,82.73
2019-03-03T00:28:55.727Z,82.63
2019-03-03T00:29:55.826Z,82.53
2019-03-03T00:30:55.707Z,82.73
2019-03-03T00:31:55.706Z,82.53
2019-03-03T00:32:55.683Z,82.53
2019-03-03T00:33:55.719Z,82.83
2019-03-03T00:34:55.675Z,82.01
2019-03-03T00:35:55.733Z,81.91
2019-03-03T00:36:55.643Z,82.01
2019-03-03T00:37:55.650Z,82.53
2019-03-03T00:38:55.618Z,82.12
2019-03-03T00:39:55.691Z,82.22
2019-03-03T00:40:55.596Z,82.01
2019-03-03T00:41:55.672Z,82.12
2019-03-03T00:42:55.574Z,81.81
2019-03-03T00:43:55.587Z,81.60
2019-03-03T00:44:55.570Z,81.71
2019-03-03T00:45:55.596Z,81.71
2019-03-03T00:46:55.532Z,81.71
2019-03-03T00:47:55.616Z,82.12
2019-03-03T00:48:55.513Z,81.91
2019-03-03T00:49:55.559Z,82.22
2019-03-03T00:50:55.490Z,81.71
2019-03-03T00:51:55.541Z,81.81
2019-03-03T00:52:55.468Z,82.12
2019-03-03T00:53:55.558Z,81.91
2019-03-03T00:54:55.460Z,81.71
2019-03-03T00:55:55.460Z,81.71
2019-03-03T00:56:55.427Z,81.60
2019-03-03T00:57:55.482Z,81.29
2019-03-03T00:58:55.403Z,81.40
2019-03-03T01:00:02.584Z,81.71
2019-03-03T01:00:55.383Z,81.71
2019-03-03T01:01:55.406Z,81.91
2019-03-03T01:02:55.360Z,82.12
2019-03-03T01:03:56.443Z,81.81
2019-03-03T01:04:55.339Z,82.15
2019-03-03T01:05:55.357Z,82.42
2019-03-03T01:06:55.321Z,82.12
2019-03-03T01:07:55.344Z,82.26
2019-03-03T01:08:55.298Z,82.36
2019-03-03T01:09:55.355Z,82.15
2019-03-03T01:10:55.287Z,82.46
2019-03-03T01:11:55.370Z,82.36
2019-03-03T01:12:55.255Z,82.26
2019-03-03T01:13:55.741Z,82.36
2019-03-03T01:14:55.232Z,82.05
2019-03-03T01:15:55.322Z,81.71
2019-03-03T01:16:55.213Z,81.81
2019-03-03T01:17:55.313Z,82.26
2019-03-03T01:18:55.191Z,82.36
2019-03-03T01:19:55.219Z,82.56
2019-03-03T01:20:55.184Z,82.15
2019-03-03T01:21:55.238Z,82.26
2019-03-03T01:22:55.145Z,82.46
2019-03-03T01:23:55.246Z,82.26
2019-03-03T01:24:55.123Z,82.46
2019-03-03T01:25:55.187Z,82.36
2019-03-03T01:26:55.102Z,82.05
2019-03-03T01:27:55.171Z,82.67
2019-03-03T01:28:55.082Z,82.87
2019-03-03T01:29:55.186Z,82.87
2019-03-03T01:30:55.073Z,82.56
2019-03-03T01:32:02.062Z,82.67
2019-03-03T01:32:55.038Z,83.01
2019-03-03T01:33:57.056Z,83.32
2019-03-03T01:34:55.018Z,83.53
2019-03-03T01:35:55.048Z,83.53
2019-03-03T01:36:54.994Z,83.32
2019-03-03T01:37:55.035Z,83.53
2019-03-03T01:38:54.974Z,83.63
2019-03-03T01:39:55.053Z,83.39
2019-03-03T01:40:54.989Z,83.12
2019-03-03T01:41:54.967Z,82.81
2019-03-03T01:42:54.928Z,82.97
2019-03-03T01:43:54.974Z,82.70
2019-03-03T01:44:54.912Z,82.97
2019-03-03T01:45:54.995Z,82.87
2019-03-03T01:46:54.903Z,82.87
2019-03-03T01:47:54.902Z,82.97
2019-03-03T01:48:54.865Z,82.77
2019-03-03T01:49:54.912Z,82.67
2019-03-03T01:50:54.849Z,82.70
2019-03-03T01:51:54.954Z,82.77
2019-03-03T01:52:54.822Z,82.77
2019-03-03T01:53:54.838Z,82.77
2019-03-03T01:54:54.800Z,82.97
2019-03-03T01:55:54.852Z,83.07
2019-03-03T01:56:54.791Z,82.97
2019-03-03T01:57:54.864Z,83.07
2019-03-03T01:58:54.758Z,83.07
2019-03-03T01:59:54.779Z,82.97
2019-03-03T02:00:54.736Z,83.18
2019-03-03T02:01:54.826Z,82.15
2019-03-03T02:02:54.715Z,82.46
2019-03-03T02:03:54.807Z,82.46
2019-03-03T02:04:54.693Z,82.01
2019-03-03T02:05:54.718Z,82.36
2019-03-03T02:06:54.697Z,82.15
2019-03-03T02:07:54.733Z,82.15
2019-03-03T02:08:54.651Z,81.95
2019-03-03T02:09:54.749Z,81.95
2019-03-03T02:10:54.630Z,82.05
2019-03-03T02:11:54.686Z,82.12
2019-03-03T02:12:54.608Z,82.12
2019-03-03T02:13:54.666Z,82.12
2019-03-03T02:14:54.586Z,82.22
2019-03-03T02:15:54.684Z,82.22
2019-03-03T02:16:54.585Z,82.32
2019-03-03T02:18:10.574Z,82.12
2019-03-03T02:18:54.546Z,82.12
2019-03-03T02:20:10.069Z,82.01
2019-03-03T02:20:54.523Z,81.91
2019-03-03T02:21:54.554Z,82.22
2019-03-03T02:22:54.500Z,81.91
2019-03-03T02:23:54.534Z,81.71
2019-03-03T02:24:54.480Z,81.71
2019-03-03T02:25:54.549Z,81.71
2019-03-03T02:26:54.474Z,82.01
2019-03-03T02:27:54.560Z,82.01
2019-03-03T02:28:54.438Z,81.36
2019-03-03T02:29:54.471Z,81.40
2019-03-03T02:30:54.421Z,80.99
2019-03-03T02:31:54.516Z,81.46
2019-03-03T02:32:54.411Z,81.26
2019-03-03T02:33:54.499Z,81.46
2019-03-03T02:34:54.373Z,81.46
2019-03-03T02:35:54.417Z,81.40
2019-03-03T02:36:54.382Z,81.50
2019-03-03T02:37:54.423Z,81.15
2019-03-03T02:38:54.332Z,81.57
2019-03-03T02:39:54.333Z,81.15
2019-03-03T02:40:54.313Z,81.26
2019-03-03T02:41:54.346Z,81.29
2019-03-03T02:42:54.306Z,81.36
2019-03-03T02:43:54.362Z,80.85
2019-03-03T02:44:54.267Z,80.33
2019-03-03T02:45:54.271Z,81.05
2019-03-03T02:46:54.247Z,81.46
2019-03-03T02:47:54.321Z,81.46
2019-03-03T02:48:54.227Z,80.85
2019-03-03T02:49:54.300Z,81.05
2019-03-03T02:50:54.206Z,81.36
2019-03-03T02:51:54.217Z,81.15
2019-03-03T02:52:54.206Z,81.15
2019-03-03T02:53:54.231Z,81.05
2019-03-03T02:54:54.165Z,80.95
2019-03-03T02:55:54.240Z,80.64
2019-03-03T02:56:54.140Z,80.95
2019-03-03T02:57:54.188Z,81.05
2019-03-03T02:58:54.118Z,81.15
2019-03-03T02:59:54.233Z,80.85
2019-03-03T03:00:54.093Z,80.95
2019-03-03T03:02:02.061Z,80.85
2019-03-03T03:02:54.084Z,80.64
2019-03-03T03:03:56.135Z,80.64
2019-03-03T03:04:54.050Z,80.44
2019-03-03T03:06:01.577Z,80.54
2019-03-03T03:06:54.029Z,80.64
2019-03-03T03:07:54.043Z,80.64
2019-03-03T03:08:54.005Z,79.68
2019-03-03T03:09:54.029Z,80.03
2019-03-03T03:10:53.984Z,80.33
2019-03-03T03:11:54.043Z,80.71
2019-03-03T03:12:53.976Z,80.54
2019-03-03T03:13:54.059Z,80.64
2019-03-03T03:14:53.937Z,80.85
2019-03-03T03:15:53.963Z,80.74
2019-03-03T03:16:53.915Z,80.95
2019-03-03T03:17:54.011Z,80.40
2019-03-03T03:18:53.896Z,80.30
2019-03-03T03:19:53.991Z,80.33
2019-03-03T03:20:53.873Z,79.89
2019-03-03T03:21:53.903Z,80.09
2019-03-03T03:22:53.860Z,79.99
2019-03-03T03:23:53.917Z,80.09
2019-03-03T03:24:53.831Z,79.58
2019-03-03T03:25:53.830Z,79.99
2019-03-03T03:26:53.803Z,79.68
2019-03-03T03:27:53.874Z,79.89
2019-03-03T03:28:53.784Z,79.48
2019-03-03T03:29:53.862Z,79.89
2019-03-03T03:30:53.758Z,80.09
2019-03-03T03:31:53.790Z,79.99
2019-03-03T03:32:53.752Z,80.09
2019-03-03T03:33:53.786Z,79.79
2019-03-03T03:34:53.716Z,79.79
2019-03-03T03:35:53.794Z,79.99
2019-03-03T03:36:53.694Z,80.30
2019-03-03T03:37:53.745Z,80.13
2019-03-03T03:38:53.670Z,79.89
2019-03-03T03:39:53.719Z,80.13
2019-03-03T03:40:53.646Z,80.09
2019-03-03T03:41:53.734Z,79.79
2019-03-03T03:42:53.672Z,79.79
2019-03-03T03:43:53.644Z,79.58
2019-03-03T03:44:53.602Z,79.38
2019-03-03T03:45:54.688Z,79.89
2019-03-03T03:46:53.579Z,79.27
2019-03-03T03:48:10.569Z,79.48
2019-03-03T03:48:53.648Z,79.27
2019-03-03T03:50:01.166Z,78.86
2019-03-03T03:50:53.544Z,78.97
2019-03-03T03:51:55.547Z,79.27
2019-03-03T03:52:53.514Z,78.86
2019-03-03T03:53:53.543Z,78.76
2019-03-03T03:54:53.491Z,78.76
2019-03-03T03:55:53.521Z,79.17
2019-03-03T03:56:53.470Z,78.86
2019-03-03T03:57:53.535Z,78.86
2019-03-03T03:58:53.462Z,79.17
2019-03-03T03:59:53.453Z,78.97
2019-03-03T04:00:53.423Z,78.86
2019-03-03T04:01:53.462Z,78.66
2019-03-03T04:02:53.407Z,78.66
2019-03-03T04:03:53.518Z,78.97
2019-03-03T04:04:53.379Z,78.76
2019-03-03T04:05:53.387Z,79.07
2019-03-03T04:06:53.358Z,78.97
2019-03-03T04:07:53.414Z,79.07
2019-03-03T04:08:53.356Z,78.76
2019-03-03T04:09:53.413Z,78.76
2019-03-03T04:10:53.318Z,78.76
2019-03-03T04:11:53.324Z,78.86
2019-03-03T04:12:53.291Z,78.76
2019-03-03T04:13:53.374Z,78.86
2019-03-03T04:14:53.271Z,78.63
2019-03-03T04:15:53.351Z,78.97
2019-03-03T04:16:53.250Z,79.07
2019-03-03T04:17:53.266Z,78.86
2019-03-03T04:18:53.242Z,78.86
2019-03-03T04:19:53.278Z,78.97
2019-03-03T04:20:53.203Z,78.97
2019-03-03T04:21:53.291Z,79.58
2019-03-03T04:22:53.180Z,79.38
2019-03-03T04:23:53.233Z,79.89
2019-03-03T04:24:53.158Z,79.79
2019-03-03T04:25:53.216Z,79.79
2019-03-03T04:26:53.134Z,79.99
2019-03-03T04:27:53.229Z,79.68
2019-03-03T04:28:53.132Z,79.07
2019-03-03T04:29:53.145Z,79.89
2019-03-03T04:30:53.090Z,79.79
2019-03-03T04:32:02.068Z,79.99
2019-03-03T04:32:53.071Z,79.89
2019-03-03T04:33:53.102Z,79.99
2019-03-03T04:34:53.046Z,79.58
2019-03-03T04:35:54.108Z,79.48
2019-03-03T04:36:53.025Z,79.48
2019-03-03T04:37:54.131Z,79.58
2019-03-03T04:38:53.021Z,79.79
2019-03-03T04:39:53.008Z,79.89
2019-03-03T04:40:52.980Z,79.07
2019-03-03T04:41:53.021Z,79.17
2019-03-03T04:42:52.959Z,79.58
2019-03-03T04:43:53.068Z,79.38
2019-03-03T04:44:52.940Z,79.89
2019-03-03T04:45:52.947Z,79.38
2019-03-03T04:46:52.913Z,79.17
2019-03-03T04:47:52.960Z,79.89
2019-03-03T04:48:52.928Z,80.60
2019-03-03T04:49:52.976Z,79.89
2019-03-03T04:50:52.869Z,80.51
2019-03-03T04:51:52.887Z,80.60
2019-03-03T04:52:52.847Z,80.91
2019-03-03T04:53:52.900Z,81.63
2019-03-03T04:54:52.841Z,82.35
2019-03-03T04:55:52.913Z,82.90
2019-03-03T04:56:52.804Z,82.79
2019-03-03T04:57:52.828Z,83.72
2019-03-03T04:58:52.780Z,83.51
2019-03-03T04:59:52.872Z,83.82
2019-03-03T05:00:52.763Z,84.78
2019-03-03T05:01:52.855Z,84.78
2019-03-03T05:02:52.748Z,86.01
2019-03-03T05:03:52.767Z,86.46
2019-03-03T05:04:52.732Z,87.79
2019-03-03T05:05:52.777Z,88.31
2019-03-03T05:06:52.698Z,88.56
2019-03-03T05:07:52.791Z,89.07
2019-03-03T05:08:52.677Z,88.96
2019-03-03T05:09:52.734Z,89.89
2019-03-03T05:10:52.650Z,89.99
2019-03-03T05:11:52.716Z,90.20
2019-03-03T05:12:52.629Z,90.44
2019-03-03T05:13:52.730Z,90.50
2019-03-03T05:14:52.625Z,89.58
2019-03-03T05:15:52.640Z,90.40
2019-03-03T05:16:52.589Z,90.61
2019-03-03T05:18:01.563Z,90.61
2019-03-03T05:18:52.569Z,90.61
2019-03-03T05:19:52.605Z,90.20
2019-03-03T05:20:52.543Z,90.75
2019-03-03T05:21:52.579Z,90.61
2019-03-03T05:22:52.524Z,90.30
2019-03-03T05:23:53.624Z,89.99
2019-03-03T05:24:52.518Z,89.78
2019-03-03T05:25:52.608Z,89.89
2019-03-03T05:26:52.480Z,89.78
2019-03-03T05:27:52.518Z,89.58
2019-03-03T05:28:52.457Z,90.30
2019-03-03T05:29:52.563Z,90.09
2019-03-03T05:30:52.437Z,90.20
2019-03-03T05:31:52.444Z,90.81
2019-03-03T05:32:52.413Z,90.50
2019-03-03T05:33:52.456Z,91.16
2019-03-03T05:34:52.396Z,91.88
2019-03-03T05:35:52.506Z,92.08
2019-03-03T05:36:52.374Z,93.12
2019-03-03T05:37:52.382Z,92.80
2019-03-03T05:38:52.350Z,92.40
2019-03-03T05:39:52.394Z,93.32
2019-03-03T05:40:52.344Z,93.16
2019-03-03T05:41:52.411Z,93.05
2019-03-03T05:42:52.310Z,93.77
2019-03-03T05:43:52.319Z,93.36
2019-03-03T05:44:52.286Z,93.67
2019-03-03T05:45:52.367Z,93.77
2019-03-03T05:46:52.266Z,93.67
2019-03-03T05:47:52.374Z,93.87
2019-03-03T05:48:52.242Z,93.57
2019-03-03T05:49:52.269Z,93.87
2019-03-03T05:50:52.237Z,94.18
2019-03-03T05:51:52.271Z,93.87
2019-03-03T05:52:52.200Z,94.08
2019-03-03T05:53:52.288Z,94.04
2019-03-03T05:54:52.178Z,93.98
2019-03-03T05:55:52.228Z,93.63
2019-03-03T05:56:52.159Z,93.87
2019-03-03T05:57:52.210Z,94.08
2019-03-03T05:58:52.138Z,94.18
2019-03-03T05:59:52.223Z,94.39
2019-03-03T06:00:52.130Z,94.18
2019-03-03T06:01:52.134Z,95.10
2019-03-03T06:02:52.492Z,95.21
2019-03-03T06:03:53.173Z,95.01
2019-03-03T06:04:52.075Z,95.01
2019-03-03T06:05:52.094Z,94.90
2019-03-03T06:06:52.057Z,95.01
2019-03-03T06:07:52.072Z,95.10
2019-03-03T06:08:52.031Z,94.85
2019-03-03T06:09:52.091Z,95.10
2019-03-03T06:10:52.030Z,94.85
2019-03-03T06:11:52.100Z,95.06
2019-03-03T06:12:51.992Z,94.34
2019-03-03T06:13:52.011Z,93.93
2019-03-03T06:14:51.964Z,93.87
2019-03-03T06:15:52.058Z,94.76
2019-03-03T06:16:51.949Z,94.18
2019-03-03T06:17:52.038Z,94.29
2019-03-03T06:18:51.933Z,95.01
2019-03-03T06:19:51.951Z,95.06
2019-03-03T06:20:51.910Z,94.49
2019-03-03T06:21:51.996Z,94.70
2019-03-03T06:22:51.879Z,95.01
2019-03-03T06:23:51.979Z,94.85
2019-03-03T06:24:51.862Z,95.01
2019-03-03T06:25:51.889Z,94.90
2019-03-03T06:26:51.855Z,95.17
2019-03-03T06:27:51.904Z,95.06
2019-03-03T06:28:51.818Z,95.27
2019-03-03T06:29:51.915Z,95.21
2019-03-03T06:30:51.795Z,95.31
2019-03-03T06:31:51.858Z,95.83
2019-03-03T06:32:51.782Z,95.57
2019-03-03T06:33:51.843Z,96.14
2019-03-03T06:34:51.752Z,95.72
2019-03-03T06:35:52.818Z,96.44
2019-03-03T06:36:51.752Z,96.23
2019-03-03T06:37:51.767Z,96.44
2019-03-03T06:38:51.708Z,96.70
2019-03-03T06:39:51.783Z,96.65
2019-03-03T06:40:51.688Z,96.50
2019-03-03T06:41:51.726Z,96.44
2019-03-03T06:42:51.665Z,96.14
2019-03-03T06:43:51.705Z,96.23
2019-03-03T06:44:51.644Z,96.70
2019-03-03T06:45:51.721Z,96.55
2019-03-03T06:46:51.642Z,96.55
2019-03-03T06:47:51.630Z,96.60
2019-03-03T06:48:51.599Z,96.60
2019-03-03T06:49:53.697Z,96.70
2019-03-03T06:50:52.966Z,96.50
2019-03-03T06:51:53.637Z,96.50
2019-03-03T06:52:51.558Z,96.65
2019-03-03T06:53:51.571Z,96.30
2019-03-03T06:54:51.536Z,96.44
2019-03-03T06:55:52.610Z,96.30
2019-03-03T06:56:51.529Z,96.60
2019-03-03T06:57:51.602Z,96.09
2019-03-03T06:58:51.504Z,96.70
2019-03-03T06:59:51.511Z,96.40
2019-03-03T07:00:51.473Z,96.19
2019-03-03T07:01:51.559Z,96.19
2019-03-03T07:02:51.449Z,95.98
2019-03-03T07:03:51.541Z,96.19
2019-03-03T07:04:51.435Z,97.02
2019-03-03T07:05:51.454Z,97.02
2019-03-03T07:06:51.420Z,96.91
2019-03-03T07:07:51.465Z,96.50
2019-03-03T07:08:51.405Z,97.22
2019-03-03T07:09:51.475Z,97.02
2019-03-03T07:10:51.377Z,96.70
2019-03-03T07:11:51.419Z,96.91
2019-03-03T07:12:51.346Z,97.22
2019-03-03T07:13:51.405Z,97.42
2019-03-03T07:14:51.327Z,97.32
2019-03-03T07:15:51.421Z,97.16
2019-03-03T07:16:51.317Z,97.27
2019-03-03T07:17:51.329Z,97.63
2019-03-03T07:18:51.279Z,97.22
2019-03-03T07:19:52.392Z,97.57
2019-03-03T07:20:51.255Z,97.22
2019-03-03T07:21:51.280Z,96.91
2019-03-03T07:22:51.234Z,96.81
2019-03-03T07:23:51.264Z,96.87
2019-03-03T07:24:51.212Z,96.30
2019-03-03T07:25:51.277Z,95.98
2019-03-03T07:26:51.209Z,96.70
2019-03-03T07:27:51.291Z,96.70
2019-03-03T07:28:51.180Z,96.81
2019-03-03T07:29:51.205Z,96.81
2019-03-03T07:30:51.153Z,96.70
2019-03-03T07:31:51.261Z,96.30
2019-03-03T07:32:51.126Z,96.81
2019-03-03T07:33:51.230Z,96.50
2019-03-03T07:34:51.111Z,96.70
2019-03-03T07:35:53.199Z,96.81
2019-03-03T07:36:51.111Z,96.66
2019-03-03T07:38:00.081Z,96.70
2019-03-03T07:38:51.071Z,96.70
2019-03-03T07:39:51.076Z,96.19
2019-03-03T07:40:51.041Z,96.30
2019-03-03T07:41:54.107Z,96.40
2019-03-03T07:42:51.025Z,96.30
2019-03-03T07:43:53.039Z,95.64
2019-03-03T07:44:50.996Z,95.43
2019-03-03T07:45:51.162Z,95.02
2019-03-03T07:46:51.067Z,95.43
2019-03-03T07:47:51.034Z,95.57
2019-03-03T07:48:50.983Z,95.28
2019-03-03T07:49:51.052Z,94.67
2019-03-03T07:50:50.969Z,94.81
2019-03-03T07:51:51.012Z,95.02
2019-03-03T07:52:50.926Z,94.87
2019-03-03T07:53:50.956Z,95.02
2019-03-03T07:54:50.889Z,94.87
2019-03-03T07:55:50.972Z,94.05
2019-03-03T07:56:50.923Z,93.64
2019-03-03T07:57:50.897Z,93.13
2019-03-03T07:58:50.848Z,92.82
2019-03-03T07:59:50.904Z,93.23
2019-03-03T08:00:50.866Z,92.88
2019-03-03T08:01:50.911Z,92.93
2019-03-03T08:02:50.818Z,92.93
2019-03-03T08:03:50.820Z,92.93
2019-03-03T08:04:50.787Z,93.13
2019-03-03T08:05:50.871Z,93.64
2019-03-03T08:06:50.762Z,93.23
2019-03-03T08:07:50.889Z,93.02
2019-03-03T08:08:50.761Z,92.88
2019-03-03T08:09:50.848Z,92.82
2019-03-03T08:10:50.722Z,93.13
2019-03-03T08:11:51.798Z,93.60
2019-03-03T08:12:50.734Z,93.19
2019-03-03T08:13:50.802Z,93.44
2019-03-03T08:14:50.708Z,93.54
2019-03-03T08:15:50.708Z,93.23
2019-03-03T08:16:50.653Z,92.27
2019-03-03T08:17:50.754Z,92.68
2019-03-03T08:18:50.652Z,93.29
2019-03-03T08:19:50.729Z,93.08
2019-03-03T08:20:50.627Z,92.88
2019-03-03T08:21:50.641Z,92.78
2019-03-03T08:22:50.617Z,93.19
2019-03-03T08:23:52.622Z,93.49
2019-03-03T08:24:51.400Z,93.44
2019-03-03T08:25:57.654Z,93.39
2019-03-03T08:26:50.552Z,93.70
2019-03-03T08:27:50.620Z,93.60
2019-03-03T08:28:50.524Z,93.29
2019-03-03T08:29:52.547Z,93.60
2019-03-03T08:30:50.505Z,93.64
2019-03-03T08:31:51.542Z,94.05
2019-03-03T08:32:50.495Z,94.01
2019-03-03T08:33:50.594Z,94.01
2019-03-03T08:34:50.459Z,94.01
2019-03-03T08:35:51.556Z,94.87
2019-03-03T08:36:50.452Z,94.32
2019-03-03T08:37:50.797Z,94.46
2019-03-03T08:38:50.418Z,94.77
2019-03-03T08:39:50.468Z,95.18
2019-03-03T08:40:50.391Z,94.98
2019-03-03T08:41:50.466Z,95.28
2019-03-03T08:42:50.414Z,95.59
2019-03-03T08:43:50.659Z,95.59
2019-03-03T08:44:50.347Z,96.31
2019-03-03T08:45:50.794Z,95.49
2019-03-03T08:46:50.325Z,95.39
2019-03-03T08:47:53.266Z,95.49
2019-03-03T08:48:50.304Z,95.59
2019-03-03T08:49:50.321Z,95.90
2019-03-03T08:50:50.284Z,96.00
2019-03-03T08:51:50.334Z,95.79
2019-03-03T08:52:50.338Z,95.59
2019-03-03T08:53:50.352Z,95.28
2019-03-03T08:54:50.241Z,95.69
2019-03-03T08:55:50.257Z,95.39
2019-03-03T08:56:50.219Z,95.59
2019-03-03T08:57:50.272Z,95.18
2019-03-03T08:58:50.212Z,95.59
2019-03-03T08:59:51.206Z,95.18
2019-03-03T09:00:50.175Z,95.18
2019-03-03T09:01:50.213Z,94.87
2019-03-03T09:02:50.156Z,94.87
2019-03-03T09:03:50.241Z,94.98
2019-03-03T09:04:50.132Z,94.98
2019-03-03T09:05:50.226Z,94.93
2019-03-03T09:06:50.113Z,94.67
2019-03-03T09:07:58.123Z,94.73
2019-03-03T09:08:50.116Z,94.11
2019-03-03T09:09:51.184Z,94.73
2019-03-03T09:10:50.070Z,94.01
2019-03-03T09:11:59.071Z,94.62
2019-03-03T09:12:50.046Z,94.93
2019-03-03T09:13:50.103Z,94.32
2019-03-03T09:14:50.024Z,94.11
2019-03-03T09:15:51.121Z,93.70
2019-03-03T09:16:50.005Z,93.90
2019-03-03T09:17:51.021Z,93.70
2019-03-03T09:18:49.998Z,94.01
2019-03-03T09:19:50.017Z,95.03
2019-03-03T09:20:49.968Z,94.93
2019-03-03T09:21:50.027Z,94.83
2019-03-03T09:22:49.940Z,94.62
2019-03-03T09:23:49.981Z,94.62
2019-03-03T09:24:49.928Z,94.62
2019-03-03T09:25:49.964Z,94.73
2019-03-03T09:26:49.901Z,94.52
2019-03-03T09:27:49.966Z,94.42
2019-03-03T09:28:49.890Z,95.24
2019-03-03T09:29:49.874Z,95.34
2019-03-03T09:30:49.858Z,94.93
2019-03-03T09:31:49.899Z,95.03
2019-03-03T09:32:49.840Z,95.29
2019-03-03T09:33:49.942Z,94.99
2019-03-03T09:34:49.814Z,95.34
2019-03-03T09:35:49.817Z,95.14
2019-03-03T09:36:49.791Z,95.24
2019-03-03T09:37:49.833Z,95.86
2019-03-03T09:38:49.807Z,95.54
2019-03-03T09:39:49.843Z,95.34
2019-03-03T09:40:49.748Z,94.99
2019-03-03T09:41:49.754Z,95.09
2019-03-03T09:42:49.718Z,95.20
2019-03-03T09:43:49.767Z,96.32
2019-03-03T09:44:49.727Z,96.37
2019-03-03T09:45:49.784Z,96.32
2019-03-03T09:46:49.674Z,96.32
2019-03-03T09:47:49.691Z,96.32
2019-03-03T09:48:49.652Z,96.32
2019-03-03T09:49:49.776Z,95.61
2019-03-03T09:50:49.632Z,96.42
2019-03-03T09:51:49.721Z,96.12
2019-03-03T09:52:49.630Z,96.32
2019-03-03T09:53:49.645Z,95.91
2019-03-03T09:54:50.463Z,95.91
2019-03-03T09:55:58.654Z,95.91
2019-03-03T09:56:49.591Z,96.32
2019-03-03T09:57:50.579Z,96.12
2019-03-03T09:58:49.547Z,96.42
2019-03-03T09:59:49.608Z,96.01
2019-03-03T10:00:49.520Z,96.32
2019-03-03T10:01:50.623Z,96.42
2019-03-03T10:02:49.520Z,96.53
2019-03-03T10:03:50.517Z,96.32
2019-03-03T10:04:49.493Z,96.12
2019-03-03T10:05:49.518Z,96.32
2019-03-03T10:06:49.462Z,96.22
2019-03-03T10:07:49.521Z,96.73
2019-03-03T10:08:49.432Z,96.53
2019-03-03T10:09:49.475Z,96.94
2019-03-03T10:10:49.441Z,96.73
2019-03-03T10:11:49.445Z,96.32
2019-03-03T10:12:49.387Z,96.73
2019-03-03T10:13:49.464Z,96.73
2019-03-03T10:14:49.416Z,97.14
2019-03-03T10:15:49.372Z,97.14
2019-03-03T10:16:49.360Z,97.45
2019-03-03T10:17:49.394Z,97.86
2019-03-03T10:18:49.326Z,97.45
2019-03-03T10:19:49.403Z,97.04
2019-03-03T10:20:49.387Z,97.34
2019-03-03T10:21:49.309Z,97.24
2019-03-03T10:22:49.354Z,97.34
2019-03-03T10:23:49.331Z,96.83
2019-03-03T10:24:49.375Z,97.04
2019-03-03T10:25:49.372Z,97.34
2019-03-03T10:26:49.293Z,97.04
2019-03-03T10:27:49.290Z,96.53
2019-03-03T10:28:49.223Z,97.14
2019-03-03T10:29:49.266Z,97.14
2019-03-03T10:30:49.604Z,97.04
2019-03-03T10:31:49.282Z,97.45
2019-03-03T10:32:49.192Z,97.24
2019-03-03T10:33:49.199Z,97.14
2019-03-03T10:34:49.382Z,97.04
2019-03-03T10:35:49.233Z,97.14
2019-03-03T10:36:49.119Z,97.04
2019-03-03T10:37:49.312Z,96.94
2019-03-03T10:38:49.099Z,97.14
2019-03-03T10:39:58.138Z,97.65
2019-03-03T10:40:49.107Z,97.04
2019-03-03T10:41:51.086Z,97.34
2019-03-03T10:42:49.055Z,97.14
2019-03-03T10:43:49.155Z,97.14
2019-03-03T10:44:49.036Z,97.45
2019-03-03T10:45:49.099Z,97.04
2019-03-03T10:46:49.051Z,96.63
2019-03-03T10:47:49.078Z,97.04
2019-03-03T10:48:48.989Z,96.73
2019-03-03T10:49:48.996Z,96.58
2019-03-03T10:50:48.980Z,96.53
2019-03-03T10:51:49.004Z,96.69
2019-03-03T10:52:48.944Z,96.48
2019-03-03T10:53:49.035Z,96.38
2019-03-03T10:54:49.000Z,96.32
2019-03-03T10:55:48.961Z,97.04
2019-03-03T10:56:48.916Z,96.89
2019-03-03T10:57:48.964Z,96.89
2019-03-03T10:58:48.888Z,96.28
2019-03-03T10:59:54.908Z,97.04
2019-03-03T11:00:49.903Z,96.69
2019-03-03T11:01:48.869Z,97.40
2019-03-03T11:02:48.838Z,97.55
2019-03-03T11:03:48.881Z,97.09
2019-03-03T11:04:48.811Z,97.20
2019-03-03T11:05:48.928Z,97.40
2019-03-03T11:06:48.811Z,96.58
2019-03-03T11:07:48.805Z,96.48
2019-03-03T11:08:48.767Z,96.79
2019-03-03T11:09:48.834Z,96.38
2019-03-03T11:10:57.277Z,96.28
2019-03-03T11:11:49.755Z,96.38
2019-03-03T11:12:48.740Z,96.69
2019-03-03T11:13:48.772Z,96.69
2019-03-03T11:14:48.751Z,96.99
2019-03-03T11:15:48.690Z,97.09
2019-03-03T11:16:48.799Z,97.20
2019-03-03T11:17:48.670Z,97.09
2019-03-03T11:18:55.809Z,97.09
2019-03-03T11:19:49.656Z,97.20
2019-03-03T11:20:48.690Z,97.24
2019-03-03T11:21:48.641Z,96.99
2019-03-03T11:22:48.709Z,97.09
2019-03-03T11:23:48.703Z,96.89
2019-03-03T11:24:55.578Z,97.40
2019-03-03T11:25:48.583Z,96.48
2019-03-03T11:26:49.693Z,96.99
2019-03-03T11:27:48.812Z,96.84
2019-03-03T11:28:48.645Z,96.38
2019-03-03T11:29:48.566Z,96.89
2019-03-03T11:30:48.573Z,97.46
2019-03-03T11:31:48.573Z,96.74
2019-03-03T11:32:48.583Z,96.13
2019-03-03T11:33:48.496Z,97.30
2019-03-03T11:34:48.590Z,97.30
2019-03-03T11:35:48.475Z,97.25
2019-03-03T11:36:48.526Z,97.40
2019-03-03T11:37:48.460Z,97.20
2019-03-03T11:38:48.506Z,96.99
2019-03-03T11:39:48.435Z,97.09
2019-03-03T11:40:48.521Z,97.66
2019-03-03T11:41:48.425Z,96.58
2019-03-03T11:42:48.434Z,96.44
2019-03-03T11:43:48.389Z,96.84
2019-03-03T11:44:48.446Z,96.84
2019-03-03T11:45:48.379Z,96.64
2019-03-03T11:46:48.394Z,96.44
2019-03-03T11:47:48.370Z,96.64
2019-03-03T11:48:48.423Z,96.44
2019-03-03T11:49:48.510Z,97.05
2019-03-03T11:50:48.384Z,97.36
2019-03-03T11:51:48.520Z,96.33
2019-03-03T11:52:48.398Z,96.84
2019-03-03T11:53:48.284Z,97.05
2019-03-03T11:54:48.310Z,97.15
2019-03-03T11:55:48.285Z,96.64
2019-03-03T11:56:48.384Z,96.74
2019-03-03T11:57:48.241Z,96.44
2019-03-03T11:58:48.337Z,96.84
2019-03-03T11:59:48.233Z,96.54
2019-03-03T12:00:48.270Z,96.54
2019-03-03T12:01:48.199Z,96.03
2019-03-03T12:02:53.955Z,96.03
2019-03-03T12:03:49.179Z,95.92
2019-03-03T12:04:48.543Z,96.39
2019-03-03T12:05:48.153Z,96.29
2019-03-03T12:06:48.187Z,96.19
2019-03-03T12:07:48.200Z,96.08
2019-03-03T12:08:48.202Z,96.19
2019-03-03T12:09:48.173Z,96.08
2019-03-03T12:10:55.113Z,95.37
2019-03-03T12:11:48.093Z,95.98
2019-03-03T12:12:53.592Z,96.44
2019-03-03T12:13:48.066Z,96.08
2019-03-03T12:14:55.156Z,95.98
2019-03-03T12:15:48.067Z,96.33
2019-03-03T12:16:50.204Z,96.39
2019-03-03T12:17:48.038Z,95.98
2019-03-03T12:18:48.068Z,96.08
2019-03-03T12:19:48.004Z,96.39
2019-03-03T12:20:48.079Z,95.98
2019-03-03T12:21:48.215Z,95.78
2019-03-03T12:22:48.227Z,96.39
2019-03-03T12:23:47.962Z,95.57
2019-03-03T12:24:48.003Z,96.14
2019-03-03T12:25:47.935Z,95.06
2019-03-03T12:26:48.033Z,95.17
2019-03-03T12:27:47.925Z,94.60
2019-03-03T12:28:47.936Z,94.81
2019-03-03T12:29:47.897Z,94.92
2019-03-03T12:30:47.944Z,94.71
2019-03-03T12:31:47.876Z,94.60
2019-03-03T12:32:47.885Z,94.51
2019-03-03T12:33:47.847Z,94.46
2019-03-03T12:34:47.868Z,94.46
2019-03-03T12:35:47.843Z,94.67
2019-03-03T12:36:47.882Z,93.74
2019-03-03T12:37:47.822Z,94.56
2019-03-03T12:38:47.910Z,93.44
2019-03-03T12:39:47.777Z,93.33
2019-03-03T12:40:47.806Z,93.54
2019-03-03T12:41:47.758Z,93.24
2019-03-03T12:42:47.853Z,93.03
2019-03-03T12:43:47.762Z,93.13
2019-03-03T12:44:47.843Z,92.93
2019-03-03T12:45:47.710Z,92.68
2019-03-03T12:46:47.748Z,92.62
2019-03-03T12:47:47.711Z,93.24
2019-03-03T12:48:47.760Z,92.58
2019-03-03T12:49:47.704Z,92.37
2019-03-03T12:50:47.668Z,92.62
2019-03-03T12:51:47.651Z,92.68